Time;durP1;ratioP1;P1;durP2;ratioP2;P2;SDS_P1;SDS_P2;PMS_P1;PMS_P2;Temp;Humidity;BMP_temperature;BMP_pressure;BME280_temperature;BME280_humidity;BME280_pressure;Samples;Min_cycle;Max_cycle;Signal;HPM_P1;HPM_P2
2021/01/20 00:04:13;;;;;;;46.02;16.20;;;;;;;-21.87;81.12;101731.02;1708687;84;21302;-89
2021/01/20 00:11:05;;;;;;;46.25;15.03;;;;;;;-21.80;80.99;101731.96;1708639;84;21171;-89
2021/01/20 00:21:24;;;;;;;40.85;14.83;;;;;;;-22.12;79.61;101746.84;1708687;84;21159;-89
2021/01/20 00:31:26;;;;;;;31.82;11.85;;;;;;;-22.46;79.70;101744.31;1708649;84;21480;-89
2021/01/20 00:41:23;;;;;;;42.03;14.55;;;;;;;-22.75;79.60;101750.36;1728956;83;21166;-89
2021/01/20 00:48:15;;;;;;;20.10;8.70;;;;;;;-22.80;79.99;101740.12;1728890;83;21186;-89
2021/01/20 00:50:55;;;;;;;22.62;7.62;;;;;;;-22.73;79.98;101752.19;1729044;83;21127;-89
2021/01/20 00:53:53;;;;;;;30.10;11.22;;;;;;;-22.76;79.83;101745.80;1729080;82;21380;-89
2021/01/20 01:04:42;;;;;;;30.80;11.48;;;;;;;-22.72;79.83;101750.61;1729001;83;21151;-87
2021/01/20 01:11:35;;;;;;;46.85;15.25;;;;;;;-22.58;80.46;101746.36;1728934;83;21248;-89
2021/01/20 01:21:28;;;;;;;52.38;17.92;;;;;;;-22.48;80.35;101751.62;1728897;82;21591;-89
2021/01/20 01:28:21;;;;;;;32.63;11.12;;;;;;;-22.56;80.07;101757.22;1734399;81;21298;-89
2021/01/20 01:35:31;;;;;;;37.25;12.35;;;;;;;-22.61;80.16;101757.22;1752912;81;21238;-89
2021/01/20 01:38:29;;;;;;;40.03;15.63;;;;;;;-22.62;80.06;101754.25;1729861;81;21405;-89
2021/01/20 01:45:05;;;;;;;56.13;16.93;;;;;;;-22.73;79.82;101753.81;1759131;81;21123;-89
2021/01/20 01:52:00;;;;;;;41.60;13.25;;;;;;;-22.83;79.59;101761.23;1759007;81;21571;-88
2021/01/20 05:56:03;;;;;;;58.23;19.15;;;;;;;-22.11;78.04;101959.86;1724405;82;21127;-84
2021/01/20 06:07:16;;;;;;;29.72;11.95;;;;;;;-22.00;79.13;101962.81;1762307;80;21183;-84
2021/01/20 06:10:00;;;;;;;65.32;15.03;;;;;;;-21.87;79.80;101965.00;1764508;79;21343;-83
2021/01/20 06:16:26;;;;;;;51.42;16.32;;;;;;;-20.29;90.63;101956.45;1710325;82;21147;-85
2021/01/20 06:19:22;;;;;;;64.42;19.27;;;;;;;-19.88;90.02;101951.44;1750381;79;21224;-85
2021/01/20 06:25:41;;;;;;;53.90;20.52;;;;;;;-19.80;91.66;101958.16;1701946;80;21512;-84
2021/01/20 06:36:33;;;;;;;56.98;20.62;;;;;;;-17.54;98.77;101962.80;1718392;80;21180;-84
2021/01/20 06:47:00;;;;;;;75.05;21.48;;;;;;;-18.37;96.14;101969.30;1712333;80;21147;-84
2021/01/20 06:53:40;;;;;;;68.30;20.95;;;;;;;-18.27;97.66;101967.02;1714816;82;21171;-84
2021/01/20 07:00:17;;;;;;;47.67;17.42;;;;;;;-19.03;95.57;101957.56;1720959;80;21155;-84
2021/01/20 07:03:06;;;;;;;43.70;15.15;;;;;;;-19.42;94.74;101954.58;1730441;81;21143;-84
2021/01/20 07:13:43;;;;;;;91.40;30.12;;;;;;;-19.82;94.34;101960.51;1746972;77;21164;-83
2021/01/20 07:24:07;;;;;;;44.53;15.78;;;;;;;-20.01;93.46;101975.75;1739060;80;21860;-82
2021/01/20 08:29:59;;;;;;;98.12;37.23;;;;;;;-17.78;88.76;102008.66;1841390;78;22770;-86
2021/01/20 08:32:27;;;;;;;103.12;38.08;;;;;;;-17.72;88.61;102013.17;1816850;79;21032;-86
2021/01/20 08:35:28;;;;;;;109.95;42.55;;;;;;;-17.61;88.43;102002.63;1816763;78;21392;-86
2021/01/20 08:38:05;;;;;;;124.82;46.18;;;;;;;-17.53;87.96;102006.45;1748298;80;21147;-91
2021/01/20 08:41:10;;;;;;;121.90;47.10;;;;;;;-17.47;87.61;102009.31;1763804;81;21550;-89
2021/01/20 08:44:16;;;;;;;86.20;32.03;;;;;;;-17.39;87.38;102012.66;1764573;81;21075;-88
2021/01/20 08:46:49;;;;;;;86.75;31.48;;;;;;;-17.27;87.30;102005.06;1764415;81;21147;-89
2021/01/20 08:49:21;;;;;;;100.27;40.92;;;;;;;-17.07;87.56;102010.02;1745105;81;22362;-89
2021/01/20 08:55:55;;;;;;;105.07;40.78;;;;;;;-16.69;88.02;102018.49;1762723;81;21004;-84
2021/01/20 09:02:47;;;;;;;122.75;47.53;;;;;;;-16.33;86.72;102026.77;1762655;81;21143;-86
2021/01/20 09:09:41;;;;;;;69.30;26.85;;;;;;;-16.09;86.16;102023.95;1762541;81;21159;-86
2021/01/20 09:16:34;;;;;;;107.35;41.15;;;;;;;-15.58;86.53;102027.96;1744961;81;21163;-86
2021/01/20 09:23:27;;;;;;;126.20;46.40;;;;;;;-15.22;85.65;102029.48;1754514;81;21147;-85
2021/01/20 09:34:43;;;;;;;137.35;52.17;;;;;;;-14.66;85.54;102023.59;1690094;83;21196;-90
2021/01/20 09:37:12;;;;;;;129.20;50.70;;;;;;;-14.31;84.87;102033.21;1741049;82;21168;-90
2021/01/20 09:39:48;;;;;;;143.02;53.60;;;;;;;-14.29;83.66;102028.75;1740712;81;21202;-90
2021/01/20 09:42:44;;;;;;;116.53;48.17;;;;;;;-14.35;82.76;102030.95;1736176;81;21141;-89
2021/01/20 09:45:41;;;;;;;145.22;58.13;;;;;;;-14.36;82.46;102030.88;1704380;82;21200;-89
2021/01/20 09:48:10;;;;;;;124.02;51.28;;;;;;;-14.33;82.61;102028.14;1732242;82;21163;-89
2021/01/20 09:51:07;;;;;;;93.83;38.47;;;;;;;-14.23;82.71;102026.09;1729960;82;21167;-88
2021/01/20 09:53:39;;;;;;;77.08;33.05;;;;;;;-14.12;82.75;102018.70;1741717;82;21188;-88
2021/01/20 09:56:08;;;;;;;83.10;29.55;;;;;;;-13.91;83.32;102018.03;1737002;82;21112;-89
2021/01/20 09:58:45;;;;;;;75.60;32.38;;;;;;;-13.72;83.52;102014.34;1697172;83;21204;-88
2021/01/20 10:01:15;;;;;;;89.28;34.40;;;;;;;-13.54;83.72;102013.48;1702098;84;21639;-89
2021/01/20 10:03:46;;;;;;;83.87;36.10;;;;;;;-13.38;83.63;102005.85;1734263;81;21172;-88
2021/01/20 10:06:17;;;;;;;85.97;36.13;;;;;;;-13.20;83.72;102009.57;1759312;80;21141;-89
2021/01/20 10:09:14;;;;;;;96.30;39.40;;;;;;;-13.02;83.47;102012.44;1758526;80;21172;-88
2021/01/20 10:11:43;;;;;;;125.40;47.93;;;;;;;-12.87;83.04;102008.09;1758756;80;21196;-89
2021/01/20 10:14:19;;;;;;;97.88;38.05;;;;;;;-12.70;82.88;102012.57;1737292;81;21164;-88
2021/01/20 10:16:48;;;;;;;83.12;35.38;;;;;;;-12.55;82.58;102012.79;1758646;80;21061;-88
2021/01/20 10:19:18;;;;;;;118.55;48.23;;;;;;;-12.39;82.42;102011.38;1747924;80;21357;-88
2021/01/20 10:21:47;;;;;;;122.02;47.13;;;;;;;-12.26;81.78;102006.47;1730787;82;21192;-89
2021/01/20 10:24:43;;;;;;;112.62;43.58;;;;;;;-12.17;80.88;102000.08;1741422;82;21203;-89
2021/01/20 10:27:13;;;;;;;93.90;38.23;;;;;;;-12.14;80.36;102003.98;1757459;81;21473;-89
2021/01/20 10:29:41;;;;;;;113.30;44.83;;;;;;;-12.07;80.04;102007.20;1743216;82;21125;-88
2021/01/20 10:36:33;;;;;;;82.27;30.45;;;;;;;-11.98;78.91;101999.19;1743819;82;21151;-87
2021/01/20 10:42:35;;;;;;;124.90;50.08;;;;;;;-12.00;78.32;101995.75;1699666;83;21157;-87
2021/01/20 10:49:02;;;;;;;134.82;55.75;;;;;;;-12.13;77.29;101997.75;1723732;83;21382;-86
2021/01/20 10:51:34;;;;;;;131.95;54.58;;;;;;;-12.21;76.78;101991.19;1743018;82;21858;-86
2021/01/20 10:54:04;;;;;;;123.80;49.38;;;;;;;-12.31;76.16;101986.98;1743150;82;21166;-87
2021/01/20 10:56:33;;;;;;;108.52;43.73;;;;;;;-12.46;75.95;101984.31;1722477;82;21556;-88
2021/01/20 10:59:01;;;;;;;116.45;46.65;;;;;;;-12.53;76.48;101982.31;1742843;82;21159;-87
2021/01/20 11:01:30;;;;;;;122.20;50.40;;;;;;;-12.51;76.89;101983.24;1742783;82;22261;-87
2021/01/20 11:03:59;;;;;;;138.77;53.20;;;;;;;-12.49;76.63;101982.91;1741208;80;21112;-86
2021/01/20 11:06:27;;;;;;;93.90;39.05;;;;;;;-12.56;76.36;101983.05;1730385;82;21166;-85
2021/01/20 11:08:59;;;;;;;116.97;47.48;;;;;;;-12.64;76.51;101984.78;1748588;81;21183;-86
2021/01/20 11:11:29;;;;;;;135.88;53.15;;;;;;;-12.63;76.90;101986.51;1740291;82;21219;-87
2021/01/20 11:13:58;;;;;;;126.72;49.48;;;;;;;-12.61;77.10;101986.15;1748749;81;21146;-88
2021/01/20 11:16:27;;;;;;;138.18;52.55;;;;;;;-12.58;77.20;101978.77;1771714;80;21148;-87
2021/01/20 11:19:01;;;;;;;135.90;54.53;;;;;;;-12.54;76.90;101978.11;1779499;80;21147;-88
2021/01/20 11:21:57;;;;;;;112.35;46.05;;;;;;;-12.56;76.74;101977.19;1779529;80;21168;-87
2021/01/20 11:24:26;;;;;;;124.05;49.42;;;;;;;-12.59;76.82;101973.28;1779652;80;21515;-87
2021/01/20 11:26:54;;;;;;;124.07;49.65;;;;;;;-12.60;76.67;101984.11;1779615;80;21342;-89
2021/01/20 11:29:24;;;;;;;93.95;39.70;;;;;;;-12.62;76.96;101980.70;1777710;80;21212;-88
2021/01/20 11:31:53;;;;;;;83.82;36.30;;;;;;;-12.59;77.47;101974.16;1773618;80;21163;-89
2021/01/20 11:34:21;;;;;;;74.65;32.20;;;;;;;-12.53;77.83;101972.27;1773753;80;21215;-89
2021/01/20 11:36:49;;;;;;;83.97;34.85;;;;;;;-12.48;78.36;101973.34;1773575;80;21488;-89
2021/01/20 11:39:17;;;;;;;95.90;38.25;;;;;;;-12.40;78.61;101973.26;1752147;80;21382;-89
2021/01/20 11:41:45;;;;;;;92.80;38.42;;;;;;;-12.31;78.76;101979.45;1773533;80;21163;-89
2021/01/20 11:44:13;;;;;;;122.33;49.55;;;;;;;-12.25;78.57;101973.42;1771653;80;21167;-89
2021/01/20 11:46:41;;;;;;;121.33;50.23;;;;;;;-12.21;78.34;101973.60;1755343;80;21638;-89
2021/01/20 11:49:09;;;;;;;103.62;41.92;;;;;;;-12.19;77.84;101968.63;1773681;80;21163;-89
2021/01/20 11:51:39;;;;;;;98.37;40.50;;;;;;;-12.20;77.54;101975.70;1773088;80;21353;-89
2021/01/20 11:54:08;;;;;;;99.45;41.68;;;;;;;-12.22;77.62;101976.91;1769294;80;21120;-88
2021/01/20 11:56:36;;;;;;;110.20;43.87;;;;;;;-12.21;78.00;101974.86;1773324;80;21199;-88
2021/01/20 11:59:05;;;;;;;111.47;41.10;;;;;;;-12.20;78.11;101968.17;1764473;80;21201;-88
2021/01/20 12:01:35;;;;;;;133.03;54.13;;;;;;;-12.25;78.22;101967.98;1743928;81;21150;-88
2021/01/20 12:04:06;;;;;;;104.70;40.90;;;;;;;-12.25;78.35;101972.16;1738238;82;21364;-88
2021/01/20 12:06:33;;;;;;;102.78;38.73;;;;;;;-12.28;78.41;101979.56;1738065;82;21229;-88
2021/01/20 12:09:02;;;;;;;95.07;37.98;;;;;;;-12.29;78.75;101980.34;1737674;82;21667;-87
2021/01/20 12:11:30;;;;;;;88.97;38.25;;;;;;;-12.27;78.94;101979.64;1757613;81;21125;-88
2021/01/20 12:14:26;;;;;;;88.03;35.55;;;;;;;-12.23;79.30;101983.98;1758692;81;21120;-88
2021/01/20 12:16:53;;;;;;;97.67;39.33;;;;;;;-12.22;79.42;101980.67;1758790;81;22325;-87
2021/01/20 12:19:22;;;;;;;100.15;40.58;;;;;;;-12.25;79.23;101981.80;1737012;81;21202;-87
2021/01/20 12:21:51;;;;;;;84.97;33.70;;;;;;;-12.30;79.31;101979.91;1759506;81;21147;-87
2021/01/20 12:24:26;;;;;;;89.05;38.35;;;;;;;-12.29;79.95;101986.63;1768680;81;21671;-88
2021/01/20 12:26:55;;;;;;;102.27;42.33;;;;;;;-12.30;79.90;101987.45;1764898;81;21176;-87
2021/01/20 12:29:23;;;;;;;99.22;39.83;;;;;;;-12.31;79.99;101987.83;1759317;81;21361;-88
2021/01/20 12:31:51;;;;;;;81.32;35.30;;;;;;;-12.35;79.84;101992.28;1767064;81;21132;-88
2021/01/20 12:34:20;;;;;;;95.22;40.78;;;;;;;-12.39;79.85;101991.30;1767160;80;21182;-88
2021/01/20 12:36:53;;;;;;;;;;;;;;;-12.42;79.97;101990.31;1796285;78;21242;-88
2021/01/20 12:39:21;;;;;;;89.45;37.53;;;;;;;-12.46;79.98;101989.70;1803342;79;20236;-88
2021/01/20 12:41:51;;;;;;;90.30;37.58;;;;;;;-12.49;80.18;101989.57;1816036;78;21253;-87
2021/01/20 12:44:19;;;;;;;95.67;38.83;;;;;;;-12.56;80.12;101988.06;1816068;79;21080;-87
2021/01/20 12:46:48;;;;;;;104.23;41.90;;;;;;;-12.63;79.92;101995.29;1816194;78;21147;-87
2021/01/20 12:49:17;;;;;;;95.75;38.13;;;;;;;-12.72;79.86;101989.09;1816062;79;21272;-87
2021/01/20 12:51:44;;;;;;;97.75;38.85;;;;;;;-12.80;80.29;101997.94;1814896;78;21150;-87
2021/01/20 12:54:12;;;;;;;93.65;37.38;;;;;;;-12.81;80.41;102002.48;1803716;78;22280;-87
2021/01/20 12:56:41;;;;;;;97.92;40.03;;;;;;;-12.84;80.63;102002.34;1792571;79;21087;-87
2021/01/20 12:59:11;;;;;;;97.72;38.98;;;;;;;-12.85;81.21;101996.86;1783366;80;21131;-87
2021/01/20 13:01:39;;;;;;;96.92;37.05;;;;;;;-12.83;81.47;101994.03;1800351;79;21579;-87
2021/01/20 13:04:07;;;;;;;98.20;40.03;;;;;;;-12.86;81.26;101990.16;1792734;79;21174;-87
2021/01/20 13:06:35;;;;;;;100.15;41.70;;;;;;;-12.87;81.38;101993.45;1783128;79;21352;-87
2021/01/20 13:09:04;;;;;;;100.20;39.95;;;;;;;-12.90;81.09;101994.19;1803389;79;21191;-87
2021/01/20 13:11:33;;;;;;;85.03;35.17;;;;;;;-12.95;81.60;101998.53;1812014;79;21199;-87
2021/01/20 13:14:01;;;;;;;90.30;34.88;;;;;;;-12.97;81.79;102002.20;1794831;79;21174;-87
2021/01/20 13:16:29;;;;;;;81.10;34.30;;;;;;;-13.00;81.63;102002.93;1804916;78;21171;-87
2021/01/20 13:18:57;;;;;;;80.22;33.75;;;;;;;-13.04;81.44;102011.12;1797635;78;21435;-87
2021/01/20 13:21:26;;;;;;;66.57;29.80;;;;;;;-13.12;81.38;102011.19;1791249;78;21173;-86
2021/01/20 13:23:54;;;;;;;75.67;28.52;;;;;;;-13.17;81.79;102007.59;1805695;79;21135;-86
2021/01/20 13:26:22;;;;;;;78.10;32.05;;;;;;;-13.12;82.34;102013.69;1812758;79;21190;-86
2021/01/20 13:28:49;;;;;;;77.87;36.10;;;;;;;-13.06;82.60;102011.45;1810160;78;21088;-86
2021/01/20 13:31:18;;;;;;;64.58;28.83;;;;;;;-12.98;82.73;102008.41;1792109;79;21138;-86
2021/01/20 13:33:47;;;;;;;68.45;28.87;;;;;;;-12.95;82.88;102011.07;1792686;79;21183;-86
2021/01/20 13:36:15;;;;;;;68.35;28.23;;;;;;;-12.89;83.38;102013.84;1787398;79;21143;-86
2021/01/20 13:38:43;;;;;;;72.40;30.65;;;;;;;-12.83;83.55;102013.26;1790300;79;21586;-86
2021/01/20 13:41:11;;;;;;;79.50;33.18;;;;;;;-12.81;83.13;102018.80;1790062;79;21128;-86
2021/01/20 13:43:39;;;;;;;72.50;29.20;;;;;;;-12.83;82.66;102014.09;1789965;79;21342;-86
2021/01/20 13:46:09;;;;;;;69.60;29.75;;;;;;;-12.84;82.34;102016.14;1794754;79;21104;-87
2021/01/20 13:48:37;;;;;;;61.98;27.32;;;;;;;-12.85;82.27;102014.05;1795932;79;21261;-86
2021/01/20 13:51:07;;;;;;;61.35;25.72;;;;;;;-12.86;82.65;102016.49;1797232;79;21215;-86
2021/01/20 13:53:35;;;;;;;63.70;27.37;;;;;;;-12.87;82.82;102014.77;1797387;79;21124;-86
2021/01/20 13:56:04;;;;;;;63.78;28.75;;;;;;;-12.89;82.53;102029.73;1797177;79;21350;-86
2021/01/20 13:58:32;;;;;;;59.13;25.88;;;;;;;-12.95;82.30;102026.13;1797075;79;21148;-86
2021/01/20 14:01:00;;;;;;;52.93;23.40;;;;;;;-12.98;82.07;102033.13;1797039;79;21422;-86
2021/01/20 14:03:28;;;;;;;64.53;27.90;;;;;;;-13.00;81.82;102039.71;1797106;79;21131;-86
2021/01/20 14:05:56;;;;;;;62.45;27.07;;;;;;;-13.04;81.58;102038.72;1797007;79;21168;-87
2021/01/20 14:08:26;;;;;;;63.17;26.55;;;;;;;-13.08;81.22;102036.84;1797011;79;21187;-86
2021/01/20 14:10:55;;;;;;;;;;;;;;;-13.12;81.33;102045.41;1782738;79;21139;-87
2021/01/20 14:13:23;;;;;;;47.93;20.05;;;;;;;-13.17;81.48;102046.08;1751314;80;20250;-87
2021/01/20 14:15:51;;;;;;;56.95;23.87;;;;;;;-13.19;81.97;102045.55;1740142;81;21124;-89
2021/01/20 14:18:19;;;;;;;75.22;23.40;;;;;;;-13.22;82.49;102043.77;1751987;81;21168;-87
2021/01/20 14:20:47;;;;;;;105.63;40.67;;;;;;;-13.03;87.00;102049.22;1750649;80;21501;-87
2021/01/20 14:23:15;;;;;;;79.72;30.77;;;;;;;-12.64;89.29;102044.61;1762645;81;21254;-87
2021/01/20 14:25:43;;;;;;;93.90;38.48;;;;;;;-12.62;88.61;102050.97;1762678;80;21207;-87
2021/01/20 14:28:12;;;;;;;85.53;38.55;;;;;;;-12.74;87.95;102048.38;1759510;80;21149;-87
2021/01/20 14:30:40;;;;;;;90.20;37.70;;;;;;;-12.86;87.14;102047.44;1767762;80;21148;-87
2021/01/20 14:33:08;;;;;;;84.95;34.27;;;;;;;-12.98;86.30;102049.80;1791326;79;21351;-87
2021/01/20 14:35:36;;;;;;;94.75;39.95;;;;;;;-13.12;85.47;102047.55;1791116;80;21158;-87
2021/01/20 14:38:08;;;;;;;108.20;43.13;;;;;;;-13.24;84.90;102052.86;1791358;79;21153;-87
2021/01/20 14:40:37;;;;;;;97.72;39.40;;;;;;;-13.35;84.42;102064.03;1791282;80;21600;-86
2021/01/20 14:43:05;;;;;;;124.00;41.92;;;;;;;-13.38;86.17;102068.95;1791317;80;21200;-87
2021/01/20 14:45:33;;;;;;;114.40;41.70;;;;;;;-13.32;87.12;102073.80;1791424;79;21629;-86
2021/01/20 14:48:08;;;;;;;99.30;37.67;;;;;;;-13.13;90.61;102075.04;1791443;80;21530;-88
2021/01/20 14:50:37;;;;;;;97.22;40.00;;;;;;;-12.83;92.49;102071.80;1791260;79;21132;-86
2021/01/20 14:53:07;;;;;;;94.87;36.55;;;;;;;-12.58;94.61;102076.65;1791038;80;21168;-86
2021/01/20 14:55:35;;;;;;;100.18;38.05;;;;;;;-12.52;94.36;102080.67;1791626;79;21113;-86
2021/01/20 14:58:02;;;;;;;96.30;34.90;;;;;;;-12.54;95.32;102093.58;1791360;79;22279;-89
2021/01/20 15:00:30;;;;;;;99.62;41.28;;;;;;;-12.55;95.27;102086.83;1791323;79;21187;-87
2021/01/20 15:02:58;;;;;;;88.00;34.70;;;;;;;-12.61;95.21;102093.69;1791227;80;21470;-87
2021/01/20 15:05:27;;;;;;;81.57;33.92;;;;;;;-12.77;94.46;102093.80;1791247;80;21137;-87
2021/01/20 15:07:55;;;;;;;97.20;37.20;;;;;;;-12.98;93.39;102110.00;1791301;79;21159;-87
2021/01/20 15:10:24;;;;;;;98.00;39.78;;;;;;;-13.19;92.64;102098.20;1791175;79;21361;-87
2021/01/20 15:12:51;;;;;;;94.35;37.67;;;;;;;-13.38;91.84;102101.55;1776352;79;21176;-87
2021/01/20 15:15:20;;;;;;;98.55;39.88;;;;;;;-13.56;91.04;102101.50;1796270;79;21166;-87
2021/01/20 15:17:48;;;;;;;91.63;37.23;;;;;;;-13.75;90.24;102103.52;1805118;79;21198;-87
2021/01/20 15:20:16;;;;;;;100.45;40.20;;;;;;;-13.93;89.47;102108.09;1812198;79;21171;-87
2021/01/20 15:22:45;;;;;;;108.67;42.48;;;;;;;-14.08;88.87;102109.84;1812354;78;21253;-87
2021/01/20 15:25:14;;;;;;;110.48;42.88;;;;;;;-14.21;88.37;102109.24;1812194;79;21231;-87
2021/01/20 15:27:41;;;;;;;76.45;31.55;;;;;;;-14.32;87.84;102122.47;1812408;78;21199;-86
2021/01/20 15:30:11;;;;;;;93.80;34.80;;;;;;;-14.44;87.20;102123.08;1812176;79;21586;-87
2021/01/20 15:32:43;;;;;;;74.87;28.20;;;;;;;-14.56;86.72;102119.95;1812294;79;21156;-87
2021/01/20 15:35:12;;;;;;;84.42;31.90;;;;;;;-14.67;86.36;102125.28;1800831;79;21376;-87
2021/01/20 15:37:40;;;;;;;73.37;29.70;;;;;;;-14.78;86.10;102130.12;1807111;79;21084;-87
2021/01/20 15:40:09;;;;;;;74.37;27.30;;;;;;;-14.83;86.08;102138.63;1812095;79;21096;-87
2021/01/20 15:42:38;;;;;;;70.62;27.70;;;;;;;-14.85;86.47;102134.30;1790992;79;21089;-86
2021/01/20 15:45:08;;;;;;;89.45;34.00;;;;;;;-14.85;86.87;102137.68;1808564;79;21599;-87
2021/01/20 15:47:36;;;;;;;90.13;36.70;;;;;;;-14.85;87.00;102141.80;1812676;79;21348;-86
2021/01/20 15:50:04;;;;;;;78.50;32.80;;;;;;;-14.89;86.84;102139.53;1799654;78;21531;-87
2021/01/20 15:52:32;;;;;;;109.63;41.50;;;;;;;-14.93;86.61;102143.50;1812350;79;21164;-86
2021/01/20 15:55:00;;;;;;;101.67;38.05;;;;;;;-14.98;86.51;102138.66;1811938;78;21123;-86
2021/01/20 15:57:28;;;;;;;112.12;39.85;;;;;;;-15.03;86.27;102136.68;1812337;78;21107;-87
2021/01/20 15:59:58;;;;;;;127.67;47.83;;;;;;;-15.10;85.96;102138.01;1812505;78;22182;-87
2021/01/20 16:02:28;;;;;;;261.75;77.97;;;;;;;-15.18;85.84;102144.23;1799825;79;21128;-87
2021/01/20 16:04:57;;;;;;;174.47;52.10;;;;;;;-15.21;85.77;102146.55;1797787;78;21170;-87
2021/01/20 16:07:25;;;;;;;113.42;38.08;;;;;;;-15.25;85.61;102143.02;1798220;78;21186;-87
2021/01/20 16:09:54;;;;;;;96.78;34.65;;;;;;;-15.29;85.42;102150.73;1780374;78;21564;-86
2021/01/20 16:12:22;;;;;;;94.15;33.20;;;;;;;-15.35;85.21;102145.41;1803556;79;21587;-87
2021/01/20 16:14:52;;;;;;;79.58;27.95;;;;;;;-15.39;85.08;102150.99;1774709;79;21088;-87
2021/01/20 16:17:22;;;;;;;73.40;27.17;;;;;;;-15.41;85.08;102156.28;1808535;79;21178;-87
2021/01/20 16:19:50;;;;;;;65.67;26.52;;;;;;;-15.45;84.98;102150.25;1775701;79;21199;-87
2021/01/20 16:22:18;;;;;;;74.22;26.48;;;;;;;-15.49;84.83;102153.38;1775472;80;21543;-87
2021/01/20 16:24:46;;;;;;;78.72;30.10;;;;;;;-15.52;84.72;102163.58;1776355;80;21635;-87
2021/01/20 16:27:15;;;;;;;72.00;27.85;;;;;;;-15.58;84.52;102160.34;1779356;80;21630;-87
2021/01/20 16:29:45;;;;;;;93.82;32.03;;;;;;;-15.62;84.47;102161.81;1782323;79;21588;-87
2021/01/20 16:32:13;;;;;;;89.90;32.10;;;;;;;-15.67;84.33;102164.44;1774316;80;21242;-87
2021/01/20 16:34:41;;;;;;;98.37;34.50;;;;;;;-15.73;84.18;102165.31;1775325;79;21112;-87
2021/01/20 16:37:09;;;;;;;67.60;26.75;;;;;;;-15.81;83.81;102161.15;1766386;79;21263;-87
2021/01/20 16:39:37;;;;;;;63.45;24.00;;;;;;;-15.92;83.30;102165.56;1772186;80;21531;-87
2021/01/20 16:42:09;;;;;;;69.50;24.75;;;;;;;-16.06;82.92;102172.23;1771206;80;21118;-87
2021/01/20 16:44:38;;;;;;;79.72;28.42;;;;;;;-16.16;82.71;102172.85;1770451;80;21191;-88
2021/01/20 16:47:06;;;;;;;78.90;29.57;;;;;;;-16.26;82.59;102172.30;1777212;79;21201;-87
2021/01/20 16:49:34;;;;;;;84.77;27.52;;;;;;;-16.32;82.82;102169.45;1778977;79;21656;-88
2021/01/20 16:52:03;;;;;;;87.82;32.95;;;;;;;-16.31;83.51;102167.44;1768915;79;21179;-88
2021/01/20 16:54:31;;;;;;;104.15;37.73;;;;;;;-16.31;83.97;102168.69;1749379;79;21128;-87
2021/01/20 16:57:02;;;;;;;93.75;33.15;;;;;;;-16.34;84.04;102176.81;1765524;80;21163;-88
2021/01/20 16:59:32;;;;;;;106.70;39.13;;;;;;;-16.35;84.17;102168.89;1775012;79;21522;-88
2021/01/20 17:02:00;;;;;;;90.15;32.15;;;;;;;-16.34;84.24;102168.48;1785779;79;21359;-88
2021/01/20 17:04:30;;;;;;;102.22;33.38;;;;;;;-16.34;84.29;102173.08;1788102;79;21132;-87
2021/01/20 17:06:59;;;;;;;123.82;40.17;;;;;;;-16.34;84.33;102174.33;1796671;79;21204;-88
2021/01/20 17:09:27;;;;;;;420.77;101.70;;;;;;;-16.35;84.08;102174.24;1788344;79;21211;-88
2021/01/20 17:11:57;;;;;;;191.28;51.70;;;;;;;-16.41;83.89;102177.22;1781742;80;21233;-87
2021/01/20 17:14:28;;;;;;;109.92;37.58;;;;;;;-16.45;83.88;102180.69;1781772;80;21437;-88
2021/01/20 17:16:56;;;;;;;113.57;36.05;;;;;;;-16.48;83.94;102181.77;1781557;80;21171;-88
2021/01/20 17:19:25;;;;;;;77.75;27.80;;;;;;;-16.50;83.82;102187.52;1781663;80;21187;-88
2021/01/20 17:21:54;;;;;;;81.50;28.92;;;;;;;-16.52;83.82;102191.55;1777179;79;21600;-89
2021/01/20 17:24:23;;;;;;;87.70;30.75;;;;;;;-16.52;83.83;102194.04;1746491;81;21215;-88
2021/01/20 17:26:53;;;;;;;78.37;29.65;;;;;;;-16.51;83.75;102189.53;1735976;82;21651;-88
2021/01/20 17:29:20;;;;;;;74.45;26.52;;;;;;;-16.55;83.52;102190.13;1766541;79;21212;-88
2021/01/20 17:31:48;;;;;;;108.07;37.75;;;;;;;-16.58;83.37;102194.07;1756143;79;21096;-88
2021/01/20 17:37:04;;;;;;;75.28;27.22;;;;;;;-16.55;83.39;102195.48;1888604;76;22752;-89
2021/01/20 17:39:32;;;;;;;72.75;26.25;;;;;;;-16.62;83.38;102190.50;1859506;77;21132;-89
2021/01/20 17:42:00;;;;;;;78.22;29.45;;;;;;;-16.62;83.34;102190.89;1853129;76;21341;-88
2021/01/20 17:44:28;;;;;;;75.85;26.82;;;;;;;-16.62;83.37;102190.89;1841148;76;21342;-89
2021/01/20 17:46:56;;;;;;;61.18;24.15;;;;;;;-16.64;83.47;102185.83;1848713;76;21945;-88
2021/01/20 17:49:24;;;;;;;76.82;25.88;;;;;;;-16.60;83.71;102192.71;1841253;77;21229;-88
2021/01/20 17:51:52;;;;;;;73.97;26.02;;;;;;;-16.59;83.97;102193.19;1859539;77;21220;-88
2021/01/20 17:54:20;;;;;;;69.92;25.65;;;;;;;-16.59;83.85;102190.70;1858724;76;21140;-88
2021/01/20 17:56:48;;;;;;;75.50;26.97;;;;;;;-16.61;83.72;102193.88;1861171;76;21191;-85
2021/01/20 17:59:45;;;;;;;66.30;25.25;;;;;;;-16.62;83.61;102193.39;1841774;77;21394;-86
2021/01/20 18:06:37;;;;;;;56.05;20.27;;;;;;;-16.66;83.45;102186.95;1859663;76;21126;-85
2021/01/20 18:13:32;;;;;;;104.12;30.72;;;;;;;-16.73;83.83;102200.21;1845784;77;21118;-85
2021/01/20 18:16:04;;;;;;;165.60;40.95;;;;;;;-16.77;83.75;102201.66;1846878;76;21167;-87
2021/01/20 18:18:32;;;;;;;100.92;31.85;;;;;;;-16.85;83.44;102202.41;1831664;77;21604;-88
2021/01/20 18:21:00;;;;;;;119.30;37.15;;;;;;;-16.91;83.17;102195.80;1825802;78;21176;-88
2021/01/20 18:23:28;;;;;;;127.50;33.70;;;;;;;-16.95;83.12;102195.55;1833825;76;21355;-88
2021/01/20 18:25:56;;;;;;;97.20;29.42;;;;;;;-17.01;82.95;102197.27;1859423;76;21639;-88
2021/01/20 18:28:23;;;;;;;86.50;29.82;;;;;;;;;;1858220;76;21140;-88
2021/01/20 18:30:52;;;;;;;84.30;25.90;;;;;;;-17.20;82.23;102194.88;1825918;78;21620;-88
2021/01/20 18:33:20;;;;;;;65.85;23.67;;;;;;;-17.27;82.03;102198.11;1825883;78;21104;-88
2021/01/20 18:35:48;;;;;;;73.05;22.98;;;;;;;-17.34;81.81;102187.77;1847064;76;21416;-88
2021/01/20 18:38:16;;;;;;;68.15;24.20;;;;;;;-17.43;81.63;102189.66;1862791;77;21133;-88
2021/01/20 18:40:44;;;;;;;69.72;25.00;;;;;;;-17.49;81.47;102191.37;1862720;77;21108;-88
2021/01/20 18:43:12;;;;;;;71.70;26.23;;;;;;;-17.54;81.40;102190.22;1862623;77;21117;-88
2021/01/20 18:45:40;;;;;;;91.10;32.17;;;;;;;-17.56;81.50;102191.73;1862690;77;21584;-88
2021/01/20 18:48:08;;;;;;;66.95;27.42;;;;;;;-17.57;81.61;102192.50;1831970;77;21318;-88
2021/01/20 18:50:36;;;;;;;79.32;26.95;;;;;;;-17.60;81.52;102188.58;1853961;77;21192;-88
2021/01/20 18:53:04;;;;;;;69.45;25.50;;;;;;;-17.64;81.44;102199.97;1857489;77;22023;-88
2021/01/20 18:55:32;;;;;;;78.72;23.83;;;;;;;-17.66;81.42;102195.63;1843887;76;21200;-87
2021/01/20 18:58:00;;;;;;;103.30;36.93;;;;;;;-17.70;81.33;102192.47;1862472;77;21150;-88
2021/01/20 19:00:29;;;;;;;73.70;25.88;;;;;;;-17.72;81.37;102196.48;1862595;76;21349;-88
2021/01/20 19:02:57;;;;;;;64.67;24.32;;;;;;;-17.75;81.36;102200.03;1862506;77;21150;-88
2021/01/20 19:05:25;;;;;;;83.15;30.20;;;;;;;-17.77;81.59;102202.03;1862315;77;21118;-88
2021/01/20 19:07:53;;;;;;;75.42;24.65;;;;;;;-17.80;81.47;102199.72;1862503;76;21118;-88
2021/01/20 19:10:21;;;;;;;83.92;26.82;;;;;;;-17.85;81.47;102208.12;1862331;77;21142;-88
2021/01/20 19:12:49;;;;;;;95.70;33.50;;;;;;;-17.86;81.52;102205.55;1862154;77;21548;-88
2021/01/20 19:15:19;;;;;;;82.08;30.45;;;;;;;-17.89;81.46;102206.18;1865523;76;21491;-87
2021/01/20 19:17:47;;;;;;;96.75;33.05;;;;;;;-18.01;81.04;102210.39;1873738;76;21018;-88
2021/01/20 19:20:15;;;;;;;81.87;27.20;;;;;;;-18.17;80.96;102214.69;1873649;76;21098;-88
2021/01/20 19:22:43;;;;;;;60.83;22.40;;;;;;;-18.25;80.91;102217.53;1873716;76;21082;-88